sensor_id;sensor_type;location;lat;lon;timestamp;P1;durP1;ratioP1;P2;durP2;ratioP2
12896;SDS011;6516;35.028;32.372;2024-03-17T00:00:37;6.80;;;4.13;;
12896;SDS011;6516;35.028;32.372;2024-03-17T00:03:05;7.00;;;4.43;;
12896;SDS011;6516;35.028;32.372;2024-03-17T00:05:35;8.18;;;4.55;;
12896;SDS011;6516;35.028;32.372;2024-03-17T00:08:03;7.18;;;4.10;;
12896;SDS011;6516;35.028;32.372;2024-03-17T00:10:30;7.88;;;4.78;;
12896;SDS011;6516;35.028;32.372;2024-03-17T00:12:57;7.28;;;4.07;;
12896;SDS011;6516;35.028;32.372;2024-03-17T00:15:23;8.20;;;4.50;;
12896;SDS011;6516;35.028;32.372;2024-03-17T00:17:49;9.05;;;4.78;;
12896;SDS011;6516;35.028;32.372;2024-03-17T00:20:15;7.35;;;4.22;;
12896;SDS011;6516;35.028;32.372;2024-03-17T00:22:48;6.95;;;4.43;;
12896;SDS011;6516;35.028;32.372;2024-03-17T00:25:16;7.40;;;4.13;;
12896;SDS011;6516;35.028;32.372;2024-03-17T00:27:43;7.10;;;4.13;;
12896;SDS011;6516;35.028;32.372;2024-03-17T00:30:10;8.75;;;4.25;;
12896;SDS011;6516;35.028;32.372;2024-03-17T00:32:40;10.45;;;4.03;;
12896;SDS011;6516;35.028;32.372;2024-03-17T00:35:07;7.30;;;4.55;;
12896;SDS011;6516;35.028;32.372;2024-03-17T00:37:39;8.87;;;4.53;;
12896;SDS011;6516;35.028;32.372;2024-03-17T00:40:05;8.13;;;4.82;;
12896;SDS011;6516;35.028;32.372;2024-03-17T00:42:31;8.80;;;4.70;;
12896;SDS011;6516;35.028;32.372;2024-03-17T00:44:58;9.30;;;4.55;;
12896;SDS011;6516;35.028;32.372;2024-03-17T00:47:30;9.10;;;4.63;;
12896;SDS011;6516;35.028;32.372;2024-03-17T00:49:56;8.97;;;4.80;;
12896;SDS011;6516;35.028;32.372;2024-03-17T00:52:22;7.82;;;4.60;;
12896;SDS011;6516;35.028;32.372;2024-03-17T00:54:48;8.75;;;4.70;;
12896;SDS011;6516;35.028;32.372;2024-03-17T00:57:14;10.80;;;4.83;;
12896;SDS011;6516;35.028;32.372;2024-03-17T00:59:43;9.25;;;4.60;;
12896;SDS011;6516;35.028;32.372;2024-03-17T01:02:10;10.07;;;4.90;;
12896;SDS011;6516;35.028;32.372;2024-03-17T01:04:41;8.68;;;4.78;;
12896;SDS011;6516;35.028;32.372;2024-03-17T01:07:11;8.50;;;5.35;;
12896;SDS011;6516;35.028;32.372;2024-03-17T01:09:37;6.90;;;4.67;;
12896;SDS011;6516;35.028;32.372;2024-03-17T01:12:04;8.38;;;4.70;;
12896;SDS011;6516;35.028;32.372;2024-03-17T01:14:31;9.07;;;5.22;;
12896;SDS011;6516;35.028;32.372;2024-03-17T01:16:58;9.18;;;5.20;;
12896;SDS011;6516;35.028;32.372;2024-03-17T01:19:25;7.75;;;4.90;;
12896;SDS011;6516;35.028;32.372;2024-03-17T01:21:51;9.07;;;5.07;;
12896;SDS011;6516;35.028;32.372;2024-03-17T01:24:18;8.80;;;4.97;;
12896;SDS011;6516;35.028;32.372;2024-03-17T01:26:44;8.82;;;5.20;;
12896;SDS011;6516;35.028;32.372;2024-03-17T01:29:10;7.75;;;4.80;;
12896;SDS011;6516;35.028;32.372;2024-03-17T01:31:36;7.60;;;5.05;;
12896;SDS011;6516;35.028;32.372;2024-03-17T01:34:02;7.53;;;5.20;;
12896;SDS011;6516;35.028;32.372;2024-03-17T01:36:28;7.20;;;4.70;;
12896;SDS011;6516;35.028;32.372;2024-03-17T01:38:54;8.93;;;5.35;;
12896;SDS011;6516;35.028;32.372;2024-03-17T01:41:20;7.95;;;5.20;;
12896;SDS011;6516;35.028;32.372;2024-03-17T01:43:46;10.70;;;5.40;;
12896;SDS011;6516;35.028;32.372;2024-03-17T01:46:13;7.90;;;5.07;;
12896;SDS011;6516;35.028;32.372;2024-03-17T01:48:43;9.05;;;4.88;;
12896;SDS011;6516;35.028;32.372;2024-03-17T01:51:10;9.52;;;5.38;;
12896;SDS011;6516;35.028;32.372;2024-03-17T01:53:37;7.57;;;4.80;;
12896;SDS011;6516;35.028;32.372;2024-03-17T01:56:05;9.50;;;4.70;;
12896;SDS011;6516;35.028;32.372;2024-03-17T01:58:33;7.70;;;5.20;;
12896;SDS011;6516;35.028;32.372;2024-03-17T02:01:00;10.30;;;4.88;;
12896;SDS011;6516;35.028;32.372;2024-03-17T02:03:26;8.40;;;5.10;;
12896;SDS011;6516;35.028;32.372;2024-03-17T02:05:52;8.70;;;5.03;;
12896;SDS011;6516;35.028;32.372;2024-03-17T02:08:18;9.25;;;4.80;;
12896;SDS011;6516;35.028;32.372;2024-03-17T02:10:45;8.48;;;5.00;;
12896;SDS011;6516;35.028;32.372;2024-03-17T02:13:11;7.60;;;4.73;;
12896;SDS011;6516;35.028;32.372;2024-03-17T02:15:37;7.88;;;4.80;;
12896;SDS011;6516;35.028;32.372;2024-03-17T02:18:03;7.93;;;4.68;;
12896;SDS011;6516;35.028;32.372;2024-03-17T02:20:30;10.38;;;5.00;;
12896;SDS011;6516;35.028;32.372;2024-03-17T02:23:14;9.63;;;5.00;;
12896;SDS011;6516;35.028;32.372;2024-03-17T02:25:40;7.85;;;4.80;;
12896;SDS011;6516;35.028;32.372;2024-03-17T02:28:06;8.30;;;4.80;;
12896;SDS011;6516;35.028;32.372;2024-03-17T02:30:32;10.18;;;4.90;;
12896;SDS011;6516;35.028;32.372;2024-03-17T02:32:58;8.37;;;4.90;;
12896;SDS011;6516;35.028;32.372;2024-03-17T02:35:24;8.18;;;4.60;;
12896;SDS011;6516;35.028;32.372;2024-03-17T02:37:51;8.95;;;5.03;;
12896;SDS011;6516;35.028;32.372;2024-03-17T02:40:17;8.17;;;4.80;;
12896;SDS011;6516;35.028;32.372;2024-03-17T02:42:44;7.35;;;4.78;;
12896;SDS011;6516;35.028;32.372;2024-03-17T02:45:11;7.30;;;4.63;;
12896;SDS011;6516;35.028;32.372;2024-03-17T02:47:38;10.07;;;4.78;;
12896;SDS011;6516;35.028;32.372;2024-03-17T02:50:04;8.47;;;4.90;;
12896;SDS011;6516;35.028;32.372;2024-03-17T02:52:32;7.65;;;4.78;;
12896;SDS011;6516;35.028;32.372;2024-03-17T02:54:58;7.75;;;4.60;;
12896;SDS011;6516;35.028;32.372;2024-03-17T02:57:25;6.75;;;4.30;;
12896;SDS011;6516;35.028;32.372;2024-03-17T02:59:55;10.15;;;5.25;;
12896;SDS011;6516;35.028;32.372;2024-03-17T03:02:22;7.80;;;4.60;;
12896;SDS011;6516;35.028;32.372;2024-03-17T03:04:48;8.18;;;4.95;;
12896;SDS011;6516;35.028;32.372;2024-03-17T03:07:14;7.35;;;4.63;;
12896;SDS011;6516;35.028;32.372;2024-03-17T03:09:40;8.88;;;4.90;;
12896;SDS011;6516;35.028;32.372;2024-03-17T03:12:06;9.80;;;4.97;;
12896;SDS011;6516;35.028;32.372;2024-03-17T03:14:33;8.98;;;5.07;;
12896;SDS011;6516;35.028;32.372;2024-03-17T03:16:59;8.98;;;4.93;;
12896;SDS011;6516;35.028;32.372;2024-03-17T03:19:26;10.70;;;5.30;;
12896;SDS011;6516;35.028;32.372;2024-03-17T03:21:52;8.32;;;5.15;;
12896;SDS011;6516;35.028;32.372;2024-03-17T03:24:18;8.47;;;4.90;;
12896;SDS011;6516;35.028;32.372;2024-03-17T03:26:44;8.65;;;5.25;;
12896;SDS011;6516;35.028;32.372;2024-03-17T03:29:10;8.18;;;5.05;;
12896;SDS011;6516;35.028;32.372;2024-03-17T03:31:37;9.50;;;5.22;;
12896;SDS011;6516;35.028;32.372;2024-03-17T03:34:06;9.17;;;4.97;;
12896;SDS011;6516;35.028;32.372;2024-03-17T03:36:37;9.82;;;5.30;;
12896;SDS011;6516;35.028;32.372;2024-03-17T03:39:04;10.13;;;4.90;;
12896;SDS011;6516;35.028;32.372;2024-03-17T03:41:30;12.88;;;5.50;;
12896;SDS011;6516;35.028;32.372;2024-03-17T03:43:58;8.32;;;4.90;;
12896;SDS011;6516;35.028;32.372;2024-03-17T03:46:24;8.83;;;4.77;;
12896;SDS011;6516;35.028;32.372;2024-03-17T03:48:51;12.32;;;5.72;;
12896;SDS011;6516;35.028;32.372;2024-03-17T03:51:17;7.72;;;4.60;;
12896;SDS011;6516;35.028;32.372;2024-03-17T03:53:42;7.22;;;4.82;;
12896;SDS011;6516;35.028;32.372;2024-03-17T03:56:08;8.07;;;4.70;;
12896;SDS011;6516;35.028;32.372;2024-03-17T03:58:36;10.65;;;5.47;;
12896;SDS011;6516;35.028;32.372;2024-03-17T04:01:08;9.95;;;5.30;;
12896;SDS011;6516;35.028;32.372;2024-03-17T04:03:36;8.20;;;4.65;;
12896;SDS011;6516;35.028;32.372;2024-03-17T04:06:03;9.48;;;4.70;;
12896;SDS011;6516;35.028;32.372;2024-03-17T04:08:31;9.47;;;4.87;;
12896;SDS011;6516;35.028;32.372;2024-03-17T04:10:58;6.70;;;4.32;;
12896;SDS011;6516;35.028;32.372;2024-03-17T04:13:26;9.05;;;4.88;;
12896;SDS011;6516;35.028;32.372;2024-03-17T04:15:55;8.02;;;4.72;;
12896;SDS011;6516;35.028;32.372;2024-03-17T04:18:23;10.52;;;5.22;;
12896;SDS011;6516;35.028;32.372;2024-03-17T04:20:55;8.17;;;4.53;;
12896;SDS011;6516;35.028;32.372;2024-03-17T04:23:23;7.43;;;4.85;;
12896;SDS011;6516;35.028;32.372;2024-03-17T04:25:52;7.80;;;4.78;;
12896;SDS011;6516;35.028;32.372;2024-03-17T04:28:19;9.07;;;4.50;;
12896;SDS011;6516;35.028;32.372;2024-03-17T04:30:45;9.27;;;4.95;;
12896;SDS011;6516;35.028;32.372;2024-03-17T04:33:14;8.67;;;4.83;;
12896;SDS011;6516;35.028;32.372;2024-03-17T04:35:42;7.18;;;4.85;;
12896;SDS011;6516;35.028;32.372;2024-03-17T04:38:08;8.20;;;4.60;;
12896;SDS011;6516;35.028;32.372;2024-03-17T04:40:34;7.05;;;4.45;;
12896;SDS011;6516;35.028;32.372;2024-03-17T04:43:06;8.07;;;4.40;;
12896;SDS011;6516;35.028;32.372;2024-03-17T04:45:36;8.07;;;4.43;;
12896;SDS011;6516;35.028;32.372;2024-03-17T04:48:03;7.90;;;4.47;;
12896;SDS011;6516;35.028;32.372;2024-03-17T04:50:29;7.43;;;4.25;;
12896;SDS011;6516;35.028;32.372;2024-03-17T04:53:00;7.15;;;4.60;;
12896;SDS011;6516;35.028;32.372;2024-03-17T04:55:26;10.18;;;5.28;;
12896;SDS011;6516;35.028;32.372;2024-03-17T04:57:53;7.30;;;4.60;;
12896;SDS011;6516;35.028;32.372;2024-03-17T05:00:19;6.55;;;4.05;;
12896;SDS011;6516;35.028;32.372;2024-03-17T05:02:46;7.72;;;4.47;;
12896;SDS011;6516;35.028;32.372;2024-03-17T05:05:12;6.07;;;3.90;;
12896;SDS011;6516;35.028;32.372;2024-03-17T05:07:38;8.48;;;4.28;;
12896;SDS011;6516;35.028;32.372;2024-03-17T05:10:04;7.28;;;4.15;;
12896;SDS011;6516;35.028;32.372;2024-03-17T05:12:32;6.32;;;3.90;;
12896;SDS011;6516;35.028;32.372;2024-03-17T05:14:58;7.17;;;4.37;;
12896;SDS011;6516;35.028;32.372;2024-03-17T05:17:24;5.82;;;3.85;;
12896;SDS011;6516;35.028;32.372;2024-03-17T05:19:57;6.10;;;3.70;;
12896;SDS011;6516;35.028;32.372;2024-03-17T05:22:23;6.05;;;3.50;;
12896;SDS011;6516;35.028;32.372;2024-03-17T05:24:49;6.70;;;3.92;;
12896;SDS011;6516;35.028;32.372;2024-03-17T05:27:15;7.57;;;4.07;;
12896;SDS011;6516;35.028;32.372;2024-03-17T05:29:41;6.43;;;3.95;;
12896;SDS011;6516;35.028;32.372;2024-03-17T05:32:07;6.40;;;3.80;;
12896;SDS011;6516;35.028;32.372;2024-03-17T05:34:33;7.00;;;3.90;;
12896;SDS011;6516;35.028;32.372;2024-03-17T05:36:59;6.70;;;3.78;;
12896;SDS011;6516;35.028;32.372;2024-03-17T05:39:27;6.38;;;3.80;;
12896;SDS011;6516;35.028;32.372;2024-03-17T05:41:52;5.38;;;3.40;;
12896;SDS011;6516;35.028;32.372;2024-03-17T05:44:18;6.00;;;3.40;;
12896;SDS011;6516;35.028;32.372;2024-03-17T05:46:44;5.80;;;3.50;;
12896;SDS011;6516;35.028;32.372;2024-03-17T05:49:10;6.55;;;3.30;;
12896;SDS011;6516;35.028;32.372;2024-03-17T05:51:37;6.63;;;4.00;;
12896;SDS011;6516;35.028;32.372;2024-03-17T05:54:03;6.27;;;3.97;;
12896;SDS011;6516;35.028;32.372;2024-03-17T05:56:29;6.93;;;4.05;;
12896;SDS011;6516;35.028;32.372;2024-03-17T05:58:55;5.72;;;3.42;;
12896;SDS011;6516;35.028;32.372;2024-03-17T06:01:21;6.97;;;3.70;;
12896;SDS011;6516;35.028;32.372;2024-03-17T06:03:47;8.37;;;3.87;;
12896;SDS011;6516;35.028;32.372;2024-03-17T06:06:13;5.93;;;3.60;;
12896;SDS011;6516;35.028;32.372;2024-03-17T06:08:39;7.65;;;3.90;;
12896;SDS011;6516;35.028;32.372;2024-03-17T06:11:06;7.50;;;3.70;;
12896;SDS011;6516;35.028;32.372;2024-03-17T06:13:33;6.10;;;3.38;;
12896;SDS011;6516;35.028;32.372;2024-03-17T06:16:01;7.10;;;3.57;;
12896;SDS011;6516;35.028;32.372;2024-03-17T06:18:28;6.13;;;3.40;;
12896;SDS011;6516;35.028;32.372;2024-03-17T06:20:54;6.38;;;3.20;;
12896;SDS011;6516;35.028;32.372;2024-03-17T06:23:24;6.30;;;3.17;;
12896;SDS011;6516;35.028;32.372;2024-03-17T06:25:53;7.30;;;3.15;;
12896;SDS011;6516;35.028;32.372;2024-03-17T06:28:20;7.17;;;3.27;;
12896;SDS011;6516;35.028;32.372;2024-03-17T06:30:54;4.85;;;2.90;;
12896;SDS011;6516;35.028;32.372;2024-03-17T06:33:26;4.57;;;2.58;;
12896;SDS011;6516;35.028;32.372;2024-03-17T06:35:57;6.05;;;3.05;;
12896;SDS011;6516;35.028;32.372;2024-03-17T06:38:23;5.82;;;3.00;;
12896;SDS011;6516;35.028;32.372;2024-03-17T06:40:49;5.27;;;2.77;;
12896;SDS011;6516;35.028;32.372;2024-03-17T06:43:19;5.55;;;3.10;;
12896;SDS011;6516;35.028;32.372;2024-03-17T06:45:57;5.78;;;3.20;;
12896;SDS011;6516;35.028;32.372;2024-03-17T06:48:25;5.07;;;2.60;;
12896;SDS011;6516;35.028;32.372;2024-03-17T06:50:53;5.70;;;3.20;;
12896;SDS011;6516;35.028;32.372;2024-03-17T06:53:23;4.40;;;2.50;;
12896;SDS011;6516;35.028;32.372;2024-03-17T06:58:24;5.88;;;2.78;;
12896;SDS011;6516;35.028;32.372;2024-03-17T07:01:00;4.63;;;2.55;;
12896;SDS011;6516;35.028;32.372;2024-03-17T07:03:30;4.97;;;2.47;;
12896;SDS011;6516;35.028;32.372;2024-03-17T07:05:57;5.57;;;2.70;;
12896;SDS011;6516;35.028;32.372;2024-03-17T07:08:27;5.00;;;2.72;;
12896;SDS011;6516;35.028;32.372;2024-03-17T07:10:55;5.07;;;2.75;;
12896;SDS011;6516;35.028;32.372;2024-03-17T07:13:35;4.80;;;2.30;;
12896;SDS011;6516;35.028;32.372;2024-03-17T07:16:03;4.40;;;2.30;;
12896;SDS011;6516;35.028;32.372;2024-03-17T07:18:33;4.63;;;2.30;;
12896;SDS011;6516;35.028;32.372;2024-03-17T07:21:00;6.63;;;2.92;;
12896;SDS011;6516;35.028;32.372;2024-03-17T07:23:29;7.13;;;2.40;;
12896;SDS011;6516;35.028;32.372;2024-03-17T07:26:00;6.15;;;2.60;;
12896;SDS011;6516;35.028;32.372;2024-03-17T07:28:30;8.20;;;2.80;;
12896;SDS011;6516;35.028;32.372;2024-03-17T07:30:58;6.00;;;2.50;;
12896;SDS011;6516;35.028;32.372;2024-03-17T07:33:27;5.10;;;2.70;;
12896;SDS011;6516;35.028;32.372;2024-03-17T07:35:58;5.07;;;2.60;;
12896;SDS011;6516;35.028;32.372;2024-03-17T07:38:28;8.13;;;2.90;;
12896;SDS011;6516;35.028;32.372;2024-03-17T07:41:02;5.20;;;2.70;;
12896;SDS011;6516;35.028;32.372;2024-03-17T07:43:30;4.82;;;2.80;;
12896;SDS011;6516;35.028;32.372;2024-03-17T07:46:02;6.47;;;3.05;;
12896;SDS011;6516;35.028;32.372;2024-03-17T07:48:30;5.07;;;2.58;;
12896;SDS011;6516;35.028;32.372;2024-03-17T07:51:02;5.18;;;2.72;;
12896;SDS011;6516;35.028;32.372;2024-03-17T07:53:31;5.77;;;2.93;;
12896;SDS011;6516;35.028;32.372;2024-03-17T07:56:02;5.93;;;2.53;;
12896;SDS011;6516;35.028;32.372;2024-03-17T07:58:30;5.60;;;2.95;;
12896;SDS011;6516;35.028;32.372;2024-03-17T08:01:01;6.38;;;2.83;;
12896;SDS011;6516;35.028;32.372;2024-03-17T08:03:30;4.60;;;2.42;;
12896;SDS011;6516;35.028;32.372;2024-03-17T08:05:57;6.40;;;2.50;;
12896;SDS011;6516;35.028;32.372;2024-03-17T08:08:24;5.85;;;2.50;;
12896;SDS011;6516;35.028;32.372;2024-03-17T08:11:00;4.60;;;2.63;;
12896;SDS011;6516;35.028;32.372;2024-03-17T08:13:28;7.25;;;2.70;;
12896;SDS011;6516;35.028;32.372;2024-03-17T08:16:01;5.03;;;2.30;;
12896;SDS011;6516;35.028;32.372;2024-03-17T08:18:30;5.50;;;2.60;;
12896;SDS011;6516;35.028;32.372;2024-03-17T08:20:58;5.45;;;2.50;;
12896;SDS011;6516;35.028;32.372;2024-03-17T08:23:27;6.03;;;2.50;;
12896;SDS011;6516;35.028;32.372;2024-03-17T08:25:53;5.63;;;2.58;;
12896;SDS011;6516;35.028;32.372;2024-03-17T08:28:24;5.38;;;2.78;;
12896;SDS011;6516;35.028;32.372;2024-03-17T08:30:59;7.53;;;2.90;;
12896;SDS011;6516;35.028;32.372;2024-03-17T08:33:27;5.68;;;2.75;;
12896;SDS011;6516;35.028;32.372;2024-03-17T08:38:27;4.55;;;2.40;;
12896;SDS011;6516;35.028;32.372;2024-03-17T08:40:56;5.85;;;2.80;;
12896;SDS011;6516;35.028;32.372;2024-03-17T08:43:23;4.70;;;2.70;;
12896;SDS011;6516;35.028;32.372;2024-03-17T08:45:56;5.90;;;2.53;;
12896;SDS011;6516;35.028;32.372;2024-03-17T08:48:32;6.07;;;2.58;;
12896;SDS011;6516;35.028;32.372;2024-03-17T08:51:00;5.18;;;2.50;;
12896;SDS011;6516;35.028;32.372;2024-03-17T08:53:28;4.72;;;2.50;;
12896;SDS011;6516;35.028;32.372;2024-03-17T08:55:54;5.30;;;2.30;;
12896;SDS011;6516;35.028;32.372;2024-03-17T08:58:21;5.72;;;2.38;;
12896;SDS011;6516;35.028;32.372;2024-03-17T09:00:48;4.43;;;2.40;;
12896;SDS011;6516;35.028;32.372;2024-03-17T09:03:14;5.10;;;2.50;;
12896;SDS011;6516;35.028;32.372;2024-03-17T09:05:42;5.85;;;2.65;;
12896;SDS011;6516;35.028;32.372;2024-03-17T09:10:47;5.22;;;2.70;;
12896;SDS011;6516;35.028;32.372;2024-03-17T09:13:16;7.25;;;2.60;;
12896;SDS011;6516;35.028;32.372;2024-03-17T09:16:00;4.43;;;2.60;;
12896;SDS011;6516;35.028;32.372;2024-03-17T09:18:31;4.90;;;2.55;;
12896;SDS011;6516;35.028;32.372;2024-03-17T09:21:02;4.57;;;2.47;;
12896;SDS011;6516;35.028;32.372;2024-03-17T09:23:31;5.13;;;2.60;;
12896;SDS011;6516;35.028;32.372;2024-03-17T09:26:01;5.30;;;2.30;;
12896;SDS011;6516;35.028;32.372;2024-03-17T09:28:29;5.05;;;2.75;;
12896;SDS011;6516;35.028;32.372;2024-03-17T09:30:56;5.90;;;2.70;;
12896;SDS011;6516;35.028;32.372;2024-03-17T09:33:24;5.73;;;2.60;;
12896;SDS011;6516;35.028;32.372;2024-03-17T09:35:55;5.25;;;2.75;;
12896;SDS011;6516;35.028;32.372;2024-03-17T09:38:26;7.63;;;2.67;;
12896;SDS011;6516;35.028;32.372;2024-03-17T09:40:53;5.78;;;2.80;;
12896;SDS011;6516;35.028;32.372;2024-03-17T09:43:23;6.15;;;2.70;;
12896;SDS011;6516;35.028;32.372;2024-03-17T09:45:50;4.93;;;2.53;;
12896;SDS011;6516;35.028;32.372;2024-03-17T09:48:23;5.10;;;2.60;;
12896;SDS011;6516;35.028;32.372;2024-03-17T09:50:56;4.57;;;2.60;;
12896;SDS011;6516;35.028;32.372;2024-03-17T09:53:27;5.65;;;2.65;;
12896;SDS011;6516;35.028;32.372;2024-03-17T09:55:59;5.45;;;2.72;;
12896;SDS011;6516;35.028;32.372;2024-03-17T09:58:29;4.60;;;2.27;;
12896;SDS011;6516;35.028;32.372;2024-03-17T10:00:55;6.82;;;2.70;;
12896;SDS011;6516;35.028;32.372;2024-03-17T10:06:45;5.43;;;2.88;;
12896;SDS011;6516;35.028;32.372;2024-03-17T10:09:15;7.60;;;3.30;;
12896;SDS011;6516;35.028;32.372;2024-03-17T10:11:47;6.07;;;2.90;;
12896;SDS011;6516;35.028;32.372;2024-03-17T10:14:16;4.70;;;2.80;;
12896;SDS011;6516;35.028;32.372;2024-03-17T10:16:43;7.10;;;2.60;;
12896;SDS011;6516;35.028;32.372;2024-03-17T10:21:48;5.68;;;2.80;;
12896;SDS011;6516;35.028;32.372;2024-03-17T10:24:21;5.83;;;3.00;;
12896;SDS011;6516;35.028;32.372;2024-03-17T10:26:57;5.82;;;2.92;;
12896;SDS011;6516;35.028;32.372;2024-03-17T10:29:27;7.32;;;2.80;;
12896;SDS011;6516;35.028;32.372;2024-03-17T10:32:16;5.40;;;3.03;;
12896;SDS011;6516;35.028;32.372;2024-03-17T10:34:42;5.97;;;3.00;;
12896;SDS011;6516;35.028;32.372;2024-03-17T10:37:18;5.37;;;3.10;;
12896;SDS011;6516;35.028;32.372;2024-03-17T10:39:50;6.57;;;3.40;;
12896;SDS011;6516;35.028;32.372;2024-03-17T10:42:24;6.32;;;3.22;;
12896;SDS011;6516;35.028;32.372;2024-03-17T10:44:53;5.78;;;2.92;;
12896;SDS011;6516;35.028;32.372;2024-03-17T10:47:27;6.57;;;3.00;;
12896;SDS011;6516;35.028;32.372;2024-03-17T10:49:54;6.40;;;3.13;;
12896;SDS011;6516;35.028;32.372;2024-03-17T10:52:28;6.75;;;2.92;;
12896;SDS011;6516;35.028;32.372;2024-03-17T10:54:58;5.90;;;2.80;;
12896;SDS011;6516;35.028;32.372;2024-03-17T11:00:00;6.17;;;2.93;;
12896;SDS011;6516;35.028;32.372;2024-03-17T11:02:30;6.22;;;3.10;;
12896;SDS011;6516;35.028;32.372;2024-03-17T11:05:02;5.22;;;2.90;;
12896;SDS011;6516;35.028;32.372;2024-03-17T11:07:49;6.00;;;2.80;;
12896;SDS011;6516;35.028;32.372;2024-03-17T11:10:24;4.75;;;2.67;;
12896;SDS011;6516;35.028;32.372;2024-03-17T11:13:02;7.53;;;3.23;;
12896;SDS011;6516;35.028;32.372;2024-03-17T11:20:33;5.10;;;2.80;;
12896;SDS011;6516;35.028;32.372;2024-03-17T11:23:01;5.80;;;3.10;;
12896;SDS011;6516;35.028;32.372;2024-03-17T11:27:59;7.35;;;2.88;;
12896;SDS011;6516;35.028;32.372;2024-03-17T11:49:38;7.90;;;3.30;;
12896;SDS011;6516;35.028;32.372;2024-03-17T11:52:13;6.53;;;3.00;;
12896;SDS011;6516;35.028;32.372;2024-03-17T11:54:45;6.40;;;3.10;;
12896;SDS011;6516;35.028;32.372;2024-03-17T11:57:24;6.15;;;2.90;;
12896;SDS011;6516;35.028;32.372;2024-03-17T11:59:52;5.28;;;3.20;;
12896;SDS011;6516;35.028;32.372;2024-03-17T12:04:56;5.70;;;3.37;;
12896;SDS011;6516;35.028;32.372;2024-03-17T12:07:24;6.93;;;3.47;;
12896;SDS011;6516;35.028;32.372;2024-03-17T12:09:53;7.68;;;3.58;;
12896;SDS011;6516;35.028;32.372;2024-03-17T12:12:24;5.82;;;3.35;;
12896;SDS011;6516;35.028;32.372;2024-03-17T12:15:00;10.13;;;3.75;;
12896;SDS011;6516;35.028;32.372;2024-03-17T12:17:28;6.10;;;3.10;;
12896;SDS011;6516;35.028;32.372;2024-03-17T12:19:54;8.85;;;3.53;;
12896;SDS011;6516;35.028;32.372;2024-03-17T12:22:22;8.32;;;3.50;;
12896;SDS011;6516;35.028;32.372;2024-03-17T12:24:54;6.63;;;3.40;;
12896;SDS011;6516;35.028;32.372;2024-03-17T12:27:25;7.40;;;3.30;;
12896;SDS011;6516;35.028;32.372;2024-03-17T12:29:53;7.00;;;3.30;;
12896;SDS011;6516;35.028;32.372;2024-03-17T12:32:22;7.72;;;3.60;;
12896;SDS011;6516;35.028;32.372;2024-03-17T12:34:54;7.63;;;3.58;;
12896;SDS011;6516;35.028;32.372;2024-03-17T12:37:26;7.45;;;3.15;;
12896;SDS011;6516;35.028;32.372;2024-03-17T12:39:59;6.72;;;3.40;;
12896;SDS011;6516;35.028;32.372;2024-03-17T12:42:26;7.50;;;3.50;;
12896;SDS011;6516;35.028;32.372;2024-03-17T12:44:57;6.97;;;3.47;;
12896;SDS011;6516;35.028;32.372;2024-03-17T12:47:27;7.10;;;3.50;;
12896;SDS011;6516;35.028;32.372;2024-03-17T12:49:56;7.65;;;3.33;;
12896;SDS011;6516;35.028;32.372;2024-03-17T12:52:30;7.05;;;3.60;;
12896;SDS011;6516;35.028;32.372;2024-03-17T12:57:50;5.70;;;3.30;;
12896;SDS011;6516;35.028;32.372;2024-03-17T13:00:47;7.18;;;3.40;;
12896;SDS011;6516;35.028;32.372;2024-03-17T13:03:34;7.70;;;3.67;;
12896;SDS011;6516;35.028;32.372;2024-03-17T13:06:02;6.68;;;3.42;;
12896;SDS011;6516;35.028;32.372;2024-03-17T13:08:33;5.90;;;3.40;;
12896;SDS011;6516;35.028;32.372;2024-03-17T13:10:59;7.15;;;3.42;;
12896;SDS011;6516;35.028;32.372;2024-03-17T13:13:25;6.88;;;3.58;;
12896;SDS011;6516;35.028;32.372;2024-03-17T13:15:54;7.38;;;3.35;;
12896;SDS011;6516;35.028;32.372;2024-03-17T13:18:20;8.48;;;3.60;;
12896;SDS011;6516;35.028;32.372;2024-03-17T13:20:47;6.77;;;3.30;;
12896;SDS011;6516;35.028;32.372;2024-03-17T13:23:19;5.35;;;2.90;;
12896;SDS011;6516;35.028;32.372;2024-03-17T13:25:49;7.30;;;3.17;;
12896;SDS011;6516;35.028;32.372;2024-03-17T13:28:15;6.60;;;3.30;;
12896;SDS011;6516;35.028;32.372;2024-03-17T13:30:41;6.20;;;3.40;;
12896;SDS011;6516;35.028;32.372;2024-03-17T13:33:08;9.20;;;3.40;;
12896;SDS011;6516;35.028;32.372;2024-03-17T13:35:34;7.32;;;3.22;;
12896;SDS011;6516;35.028;32.372;2024-03-17T13:38:04;5.95;;;3.50;;
12896;SDS011;6516;35.028;32.372;2024-03-17T13:40:33;7.88;;;3.65;;
12896;SDS011;6516;35.028;32.372;2024-03-17T13:43:00;7.40;;;3.10;;
12896;SDS011;6516;35.028;32.372;2024-03-17T13:45:27;8.65;;;3.63;;
12896;SDS011;6516;35.028;32.372;2024-03-17T13:48:06;9.40;;;3.40;;
12896;SDS011;6516;35.028;32.372;2024-03-17T13:50:38;7.40;;;3.42;;
12896;SDS011;6516;35.028;32.372;2024-03-17T13:53:07;9.02;;;3.40;;
12896;SDS011;6516;35.028;32.372;2024-03-17T13:55:33;12.53;;;3.40;;
12896;SDS011;6516;35.028;32.372;2024-03-17T13:58:00;7.25;;;3.50;;
12896;SDS011;6516;35.028;32.372;2024-03-17T14:00:27;7.40;;;3.30;;
12896;SDS011;6516;35.028;32.372;2024-03-17T14:02:55;7.65;;;3.72;;
12896;SDS011;6516;35.028;32.372;2024-03-17T14:05:22;7.85;;;3.55;;
12896;SDS011;6516;35.028;32.372;2024-03-17T14:07:51;10.70;;;3.60;;
12896;SDS011;6516;35.028;32.372;2024-03-17T14:10:19;8.18;;;3.50;;
12896;SDS011;6516;35.028;32.372;2024-03-17T14:12:48;6.30;;;3.30;;
12896;SDS011;6516;35.028;32.372;2024-03-17T14:15:14;6.20;;;3.40;;
12896;SDS011;6516;35.028;32.372;2024-03-17T14:17:42;10.18;;;3.60;;
12896;SDS011;6516;35.028;32.372;2024-03-17T14:20:09;6.43;;;3.30;;
12896;SDS011;6516;35.028;32.372;2024-03-17T14:22:41;7.82;;;3.30;;
12896;SDS011;6516;35.028;32.372;2024-03-17T14:25:09;9.10;;;3.60;;
12896;SDS011;6516;35.028;32.372;2024-03-17T14:27:46;7.47;;;3.40;;
12896;SDS011;6516;35.028;32.372;2024-03-17T14:30:14;8.73;;;3.47;;
12896;SDS011;6516;35.028;32.372;2024-03-17T14:32:42;8.87;;;3.40;;
12896;SDS011;6516;35.028;32.372;2024-03-17T14:35:11;7.72;;;3.17;;
12896;SDS011;6516;35.028;32.372;2024-03-17T14:37:42;8.18;;;3.50;;
12896;SDS011;6516;35.028;32.372;2024-03-17T14:40:12;7.47;;;3.30;;
12896;SDS011;6516;35.028;32.372;2024-03-17T14:42:47;8.23;;;3.65;;
12896;SDS011;6516;35.028;32.372;2024-03-17T14:45:14;7.43;;;3.37;;
12896;SDS011;6516;35.028;32.372;2024-03-17T14:47:41;8.68;;;3.70;;
12896;SDS011;6516;35.028;32.372;2024-03-17T14:50:07;7.53;;;3.60;;
12896;SDS011;6516;35.028;32.372;2024-03-17T14:52:37;7.22;;;3.38;;
12896;SDS011;6516;35.028;32.372;2024-03-17T14:55:03;8.18;;;3.30;;
12896;SDS011;6516;35.028;32.372;2024-03-17T14:57:30;9.30;;;3.40;;
12896;SDS011;6516;35.028;32.372;2024-03-17T14:59:56;8.60;;;3.42;;
12896;SDS011;6516;35.028;32.372;2024-03-17T15:02:23;8.82;;;3.33;;
12896;SDS011;6516;35.028;32.372;2024-03-17T15:04:51;8.77;;;3.40;;
12896;SDS011;6516;35.028;32.372;2024-03-17T15:07:18;8.10;;;3.85;;
12896;SDS011;6516;35.028;32.372;2024-03-17T15:09:43;8.13;;;3.80;;
12896;SDS011;6516;35.028;32.372;2024-03-17T15:12:09;9.02;;;3.72;;
12896;SDS011;6516;35.028;32.372;2024-03-17T15:14:35;10.07;;;3.85;;
12896;SDS011;6516;35.028;32.372;2024-03-17T15:17:03;7.68;;;3.60;;
12896;SDS011;6516;35.028;32.372;2024-03-17T15:19:29;8.23;;;3.70;;
12896;SDS011;6516;35.028;32.372;2024-03-17T15:21:55;8.43;;;4.03;;
12896;SDS011;6516;35.028;32.372;2024-03-17T15:24:20;9.93;;;4.18;;
12896;SDS011;6516;35.028;32.372;2024-03-17T15:26:46;7.78;;;4.30;;
12896;SDS011;6516;35.028;32.372;2024-03-17T15:29:15;10.85;;;4.00;;
12896;SDS011;6516;35.028;32.372;2024-03-17T15:31:41;9.30;;;3.90;;
12896;SDS011;6516;35.028;32.372;2024-03-17T15:34:07;9.32;;;4.03;;
12896;SDS011;6516;35.028;32.372;2024-03-17T15:36:33;9.82;;;3.97;;
12896;SDS011;6516;35.028;32.372;2024-03-17T15:38:59;8.18;;;4.10;;
12896;SDS011;6516;35.028;32.372;2024-03-17T15:41:25;8.87;;;4.77;;
12896;SDS011;6516;35.028;32.372;2024-03-17T15:43:51;8.77;;;4.20;;